logo
Games tagged Sokoban
# Game Release date
Price
Score rank
(Userscore / Metascore)
Owners
Players
Playtime (Median)
Developer(s)
Publisher(s)
1 Stephen's Sausage Roll Apr 17, 2016 $11.99N/A (N/A/90%)50,000 .. 100,0000%00:00 (00:00)increpare gamesincrepare games
2 Baba Is You Mar 13, 2019 $14.99N/A (N/A/87%)500,000 .. 1,000,0000%00:00 (00:00)Hempuli OyHempuli Oy
3 Sokobond Jul 21, 2014 $2.49N/A (N/A/82%)20,000 .. 50,0000%00:00 (00:00)Alan Hazelden, Lee Shang LunDraknek
4 Bonfire Peaks Sep 30, 2021 $15.99N/A (N/A/81%)0 .. 20,0000%00:00 (00:00)Corey MartinDraknek
5 Catherine Classic Jan 10, 2019 $19.99N/A (N/A/80%)200,000 .. 500,0000%00:00 (00:00)ATLUSSEGA
6 Room to Grow Feb 25, 2021 $9.99N/A (N/A/76%)0 .. 20,0000%00:00 (00:00)Mischka KamenerMischka Kamener
7 MacGuffin's Curse Apr 19, 2012 $9.99N/A (N/A/73%)20,000 .. 50,0000%00:00 (00:00)BrawsomeBrawsome
8 Felix The Reaper Oct 17, 2019 $9.99N/A (N/A/71%)20,000 .. 50,0000%00:00 (00:00)Kong OrangeDaedalic Entertainment
9 Ittle Dew Jul 23, 2013 $9.99N/A (N/A/67%)100,000 .. 200,0000%00:00 (00:00)LudosityLudosity
10 DERU - The Art of Cooperation Nov 7, 2018 $14.99N/A (N/A)0 .. 20,0000%00:00 (00:00)Ink KitInk Kit
11 Woodways Apr 2, 2018 FreeN/A (N/A)0 .. 20,0000%00:00 (00:00)Sen GamesSen Games
12 Soko Match Sep 16, 2016 N/AN/A (N/A)0 .. 20,0000%00:00 (00:00)AntarsoftRed Mount Media
13 Chip's Challenge 1 May 28, 2015 FreeN/A (N/A)100,000 .. 200,0000%00:00 (00:00)Niffler Ltd.Niffler Ltd.
14 Wyvern Mar 9, 2021 FreeN/A (N/A)20,000 .. 50,0000%00:00 (00:00)Ghost Track IncGhost Track Inc
15 flaming/million Feb 15, 2021 FreeN/A (N/A)0 .. 20,0000%00:00 (00:00)nilson carrollnilson carroll
16 Roce's Journey Oct 30, 2020 FreeN/A (N/A)0 .. 20,0000%00:00 (00:00)聖Rawrence聖Rawrence, RMAsia
17 Little Square Things Sep 29, 2019 FreeN/A (N/A)200,000 .. 500,0000%00:00 (00:00)G.ReedTop Hat Studios Inc
18 King Rabbit - Puzzle Jan 25, 2019 FreeN/A (N/A)20,000 .. 50,0000%00:00 (00:00)RareSlothRareSloth
19 Dis Pontibus Jan 7, 2019 $4.99N/A (N/A)0 .. 20,0000%00:00 (00:00)Marcos DonnantuoniMarcos Donnantuoni
20 ECON - Elemental Connection Dec 14, 2018 $2.99N/A (N/A)0 .. 20,0000%00:00 (00:00)Twelve TilesTwelve Tiles
21 Hiding Spot Oct 16, 2018 $4.99N/A (N/A)0 .. 20,0000%00:00 (00:00)Corey MartinCorey Martin
22 Resynth Sep 27, 2018 $5.99N/A (N/A)0 .. 20,0000%00:00 (00:00)Polyphonic LPPolyphonic LP
23 Luna and the Moonling Sep 21, 2018 $14.99N/A (N/A)0 .. 20,0000%00:00 (00:00)Greyborn StudiosGreyborn Studios
24 Sokoban: The RPG Sep 6, 2018 $5.99N/A (N/A)0 .. 20,0000%00:00 (00:00)Mike DaasMike Daas
25 YAPP2: Yet Another Pushing Puzzler Jul 20, 2018 $1.99N/A (N/A)0 .. 20,0000%00:00 (00:00)Artless GamesArtless Games
26 Mushroom Quest Jun 18, 2018 $2.99N/A (N/A)0 .. 20,0000%00:00 (00:00)Flying Islands TeamFlying Islands Team
27 Dinosaur Hunt Puzzle Jun 13, 2018 $0.99N/A (N/A)50,000 .. 100,0000%00:00 (00:00)Racing BrosANPA.US
28 Hexologic May 29, 2018 $2.99N/A (N/A)50,000 .. 100,0000%00:00 (00:00)MythicOwlMythicOwl
29 SOK MIN Apr 20, 2018 $1.99N/A (N/A)20,000 .. 50,0000%00:00 (00:00)Siberian MouseSiberian Mouse
30 Loader Apr 10, 2018 $1.99N/A (N/A)0 .. 20,0000%00:00 (00:00)Errigar GamesErrigar Games
31 Molecule - a chemical challenge Mar 2, 2018 $1.99N/A (N/A)0 .. 20,0000%00:00 (00:00)a.mighty.disha.mighty.dish
32 SOK MAX Feb 14, 2018 $1.99N/A (N/A)20,000 .. 50,0000%00:00 (00:00)Siberian MouseSiberian Mouse
33 Dinoku Feb 12, 2018 $2.99N/A (N/A)0 .. 20,0000%00:00 (00:00)Prince Game StudioPrince Game Studio
34 Pipe Push Paradise Jan 18, 2018 $9.99N/A (N/A)0 .. 20,00033.33%00:50 (00:25)Corey MartinCorey Martin
35 Maze Of Adventures Jan 17, 2018 $9.99N/A (N/A)0 .. 20,0000%00:00 (00:00)OCP, Yuri ChuchmayOCP
36 SAWKOBAN Jan 11, 2018 $9.99N/A (N/A)50,000 .. 100,0000%00:00 (00:00)Bullid GamesBullid Games
37 SOK Dec 22, 2017 $1.99N/A (N/A)0 .. 20,0000%00:00 (00:00)Siberian MouseSiberian Mouse
38 Australian trip Dec 10, 2017 $0.99N/A (N/A)20,000 .. 50,0000%00:00 (00:00)SergioPoveronySergioPoverony
39 Tooki Dec 15, 2017 $9.99N/A (N/A)0 .. 20,0000%00:00 (00:00)Rhino Games IrelandRhino Games Ireland
40 Super BoxMan Ultra Nov 13, 2017 $0.99N/A (N/A)0 .. 20,0000%00:00 (00:00)Rocket Monster GamesRocket Monster Games
41 Santa's Workshop Oct 22, 2017 $0.99N/A (N/A)0 .. 20,0000%00:00 (00:00)Rocket Monster GamesRocket Monster Games
42 Circuit Dude Aug 3, 2017 $5.99N/A (N/A)0 .. 20,0000%00:00 (00:00)Jonathan Holmes (crait)Jonathan Holmes (crait)
43 Tailwind Jul 28, 2017 $1.99N/A (N/A)0 .. 20,0000%00:00 (00:00)ClickGamesClickGames
44 Sokoban Land DX Jul 27, 2017 $4.99N/A (N/A)0 .. 20,0000%00:00 (00:00)lightUPlightUP
45 Pharmakon - Tactical Puzzle Jul 20, 2017 $3.99N/A (N/A)20,000 .. 50,0000%00:00 (00:00)Visumeca GamesVisumeca Games
46 YANKAI'S PEAK. Jul 13, 2017 $5.99N/A (N/A)0 .. 20,0000%00:00 (00:00)Kenny SunKenny Sun
47 Abyssal Zone Jan 26, 2017 $6.99N/A (N/A)0 .. 20,0000%00:00 (00:00)LedLed
48 Soulless: Ray Of Hope Oct 18, 2016 $4.99N/A (N/A)50,000 .. 100,0000%00:00 (00:00)Frisky Fatal GamesMeridian4
49 Underground Keeper Aug 15, 2016 $9.99N/A (N/A)0 .. 20,0000%00:00 (00:00)Render SystemRender System
50 Pepe Porcupine Jun 6, 2016 $0.99N/A (N/A)20,000 .. 50,0000%00:00 (00:00)EnsenaSoftEnsenaSoft
51 Akin Jun 6, 2016 $0.99N/A (N/A)20,000 .. 50,0000%00:00 (00:00)ThinkOfGamesBig Black Bear
52 Polyology Mar 28, 2016 $0.99N/A (N/A)0 .. 20,0000%00:00 (00:00)Gridlock InteractiveGridlock Interactive
53 The Prism Sep 3, 2015 $3.99N/A (N/A)100,000 .. 200,0000%00:00 (00:00)Nikhil. T, Gabriel. HVolens Nolens Games
54 StartBolita Jul 30, 2015 $0.99N/A (N/A)0 .. 20,0000%00:00 (00:00)JhonGamesJhonGames
55 Chip's Challenge 2 May 28, 2015 $4.99N/A (N/A)20,000 .. 50,0000%00:00 (00:00)Niffler Ltd.Niffler Ltd.
56 Snakebird May 4, 2015 $6.99N/A (N/A)50,000 .. 100,0000%00:00 (00:00)Noumenon GamesNoumenon Games
57 Parcel Apr 22, 2015 $4.99N/A (N/A)20,000 .. 50,0000%00:00 (00:00)Polar Bunny LtdPolar Bunny Ltd
58 Rainbow Hero Mar 19, 2015 $4.99N/A (N/A)0 .. 20,0000%00:00 (00:00)Pixel ElephantBigger Boat
59 A Good Snowman Is Hard To Build Feb 25, 2015 $9.99N/A (N/A)50,000 .. 100,0000%00:00 (00:00)Alan Hazelden, Benjamin DavisDraknek
60 Schein Oct 9, 2014 $4.99N/A (N/A)100,000 .. 200,0000%00:00 (00:00)Zeppelin StudioMeridian4
61 Chuck's Challenge 3D 2020 Feb 28, 2014 $9.99N/A (N/A)50,000 .. 100,0000%00:00 (00:00)Niffler Ltd.Niffler Ltd.
62 English Country Tune Aug 9, 2012 $4.99N/A (N/A)200,000 .. 500,0000%00:00 (00:00)increpare gamesincrepare games
63 Gem Setter May 19, 2022 $6.99N/A (N/A)20,000 .. 50,0000%00:00 (00:00)1f1n1tyRedTigerPro
64 Linelith May 19, 2022 $2.69N/A (N/A)0 .. 20,0000%00:00 (00:00)Patrick TraynorPatrick Traynor
65 Space Ducks: The great escape May 19, 2022 $3.59N/A (N/A)0 .. 20,0000%00:00 (00:00)6 Toad Games 6 Toad Games
66 TENDY: Robot Gardener May 19, 2022 $3.59N/A (N/A)0 .. 20,0000%00:00 (00:00)Michael Schmitt, TJ RichardsonToo Much Tomato
67 Jelly Is Sticky May 19, 2022 $12.74N/A (N/A)0 .. 20,0000%00:00 (00:00)Lunarch StudiosLunarch Studios, WhisperGames
68 Khoros May 18, 2022 $11.99N/A (N/A)0 .. 20,0000%00:00 (00:00)SureksuTeam Spicy Bubble
69 Icemaze Cave: Skate Escape May 18, 2022 $5.09N/A (N/A)0 .. 20,0000%00:00 (00:00)OrnbjornOrnbjorn
70 Ralph's party RPG May 17, 2022 $4.99N/A (N/A)50,000 .. 100,0000%00:00 (00:00)Samuvt2Samuvt2
71 Calmie Dots May 16, 2022 $0.99N/A (N/A)0 .. 20,0000%00:00 (00:00)CuteKateStudioCuteKateStudio
72 I'm on Observation Duty 5 May 13, 2022 $9.99N/A (N/A)20,000 .. 50,0000%00:00 (00:00)NotoviaNotovia
73 Inferno Apr 29, 2022 $6.99N/A (N/A)0 .. 20,0000%00:00 (00:00)Blue VertexBlue Vertex
74 PIPI IS YOU Apr 15, 2022 $0.49N/A (N/A)0 .. 20,0000%00:00 (00:00)微云微云
75 GAMEDOG Apr 8, 2022 $5N/A (N/A)0 .. 20,0000%00:00 (00:00)GHXYK2, bankbankWainstop James
76 No Anglerfish Apr 5, 2022 $0.99N/A (N/A)0 .. 20,0000%00:00 (00:00)Gartek StudiosGartek Studios
77 ShapeGrid Apr 4, 2022 $1.99N/A (N/A)0 .. 20,0000%00:00 (00:00)Matias BontempoMatias Bontempo
78 Sokobos Apr 1, 2022 $4.99N/A (N/A)0 .. 20,0000%00:00 (00:00)Daisy GamesDaisy Games
79 Patrick's Parabox Mar 29, 2022 $17.99N/A (N/A)20,000 .. 50,0000%00:00 (00:00)Patrick TraynorPatrick Traynor
80 Fluffy Milo Mar 28, 2022 $1.99N/A (N/A)0 .. 20,0000%00:00 (00:00)Homemade PuzzlesHomemade Puzzles
81 Pusheep Mar 24, 2022 $8.99N/A (N/A)0 .. 20,0000%00:00 (00:00)EL Mehdi LaghlimiAkamel Studio
82 SokoWinter Mar 13, 2022 $0.79N/A (N/A)0 .. 20,0000%00:00 (00:00)Gray BossGray Boss
83 Brothers Mar 11, 2022 $0.99N/A (N/A)0 .. 20,0000%00:00 (00:00)Parables GamesParables Games
84 黎明为歌 - Melody before the Dawn Mar 11, 2022 $4.99N/A (N/A)0 .. 20,0000%00:00 (00:00)符绾Eternal Dream
85 Koni: The Secrets of Castle Mar 9, 2022 $0.99N/A (N/A)0 .. 20,0000%00:00 (00:00)Shido Game StudioShido Game Studio
86 Dungeon Blocks Mar 9, 2022 $1.99N/A (N/A)0 .. 20,0000%00:00 (00:00)Fortcullis GamesFortcullis Games
87 SOKOBOT Mar 4, 2022 $11.19N/A (N/A)0 .. 20,0000%00:00 (00:00)Alexander TaylorAlexander Taylor
88 Pirate's Gold Mar 1, 2022 $9.99N/A (N/A)20,000 .. 50,0000%00:00 (00:00)Jochen Heizmann, Emmanuel HennéAsylum Square
89 Crate Mates Feb 25, 2022 $4.99N/A (N/A)0 .. 20,0000%00:00 (00:00)Emerick GibsonEmerick Gibson
90 Relic Adventure Jan 28, 2022 $1.99N/A (N/A)0 .. 20,0000%00:00 (00:00)IOSEF, Loni.ChouIOSEF, RMAsia
91 Mess Adventures 2 Jan 25, 2022 $4.99N/A (N/A)0 .. 20,0000%00:00 (00:00)Marvelous GamesMarvelous Games
92 A Maze Fox Jan 21, 2022 $2.99N/A (N/A)0 .. 20,0000%00:00 (00:00)Chubby PotatoChubby Potato
93 Greedy Corgi Jan 21, 2022 $2.99N/A (N/A)0 .. 20,0000%00:00 (00:00)Mamori StudioMamori Studio
94 Time Master Jan 18, 2022 $14.99N/A (N/A)0 .. 20,0000%00:00 (00:00)MorpheusZMorpheusZ
95 Box's Dream Jan 14, 2022 $2.99N/A (N/A)0 .. 20,0000%00:00 (00:00)EspirArt GamesEspirArt Games
96 Myoubouh Catcher Jan 7, 2022 $11.99N/A (N/A)0 .. 20,0000%00:00 (00:00)Myoubouh CorpMyoubouh Corp
97 Rimebeard Jan 3, 2022 $12.99N/A (N/A)0 .. 20,0000%00:00 (00:00)WackytoasterWackytoaster
98 The Godkiller - Chapter 1 Dec 31, 2021 $19.99N/A (N/A)20,000 .. 50,0000%00:00 (00:00)Seespace LabsSeespace Labs
99 Latarnix Puzzle Dec 24, 2021 $2.99N/A (N/A)0 .. 20,0000%00:00 (00:00)Mad MimicMad Mimic
100 Gardener's Path Dec 22, 2021 $4.99N/A (N/A)20,000 .. 50,0000%00:00 (00:00)Viridino StudiosViridino Studios
101 I'm on Observation Duty 4 Dec 22, 2021 $4.99N/A (N/A)0 .. 20,0000%00:00 (00:00)NotoviaNotovia
102 Chesskoban Bishop Dec 16, 2021 $0.99N/A (N/A)0 .. 20,0000%00:00 (00:00)Heimo Game StudioHeimo Game Studio
103 Block City: Bus Edition Dec 15, 2021 $1.99N/A (N/A)0 .. 20,0000%00:00 (00:00)Coffee StudioCoffee Studio
104 Superposition Dec 15, 2021 $4.99N/A (N/A)0 .. 20,0000%00:00 (00:00)Anadodic LLCAnadodic LLC
105 Waifus Smash Dec 4, 2021 $2.09N/A (N/A)0 .. 20,0000%00:00 (00:00)GalartGalart
106 Mushroom Hunter Nov 30, 2021 $12.99N/A (N/A)0 .. 20,0000%00:00 (00:00)RevilDaygigantumgames
107 Snake Pit Nov 29, 2021 $1.99N/A (N/A)20,000 .. 50,0000%00:00 (00:00)MisteryJay89MisteryJay89
108 Magneta Box Nov 29, 2021 $2.99N/A (N/A)0 .. 20,0000%00:00 (00:00)Laptopcoder11Laptopcoder11
109 The Giraffe World Nov 26, 2021 FreeN/A (N/A)0 .. 20,0000%00:00 (00:00)Quentin DelvalletQuentin Delvallet
110 Cube Space Nov 25, 2021 $2.49N/A (N/A)0 .. 20,0000%00:00 (00:00)HymooriGagonfe
111 Cursed House 10 - Match 3 Puzzle Nov 25, 2021 $6.99N/A (N/A)0 .. 20,0000%00:00 (00:00)LGT SIALGT SIA
112 My Very Own Light Oct 30, 2020 $19.99N/A (N/A)0 .. 20,0000%00:00 (00:00)The Wild GamesThe Wild Games
113 TownOfDestruction Nov 23, 2021 $0.99N/A (N/A)0 .. 20,0000%00:00 (00:00)Jackdaw4617Jackdaw4617
114 Cube Flip Nov 19, 2021 $4.99N/A (N/A)20,000 .. 50,0000%00:00 (00:00)Shubham RajanwarBytehop Studios
115 Roll The Cat Nov 17, 2021 $2.99N/A (N/A)0 .. 20,0000%00:00 (00:00)LeJunesArtLeJunesArt
116 Lawnmower Game: Pinball Nov 17, 2021 $0.99N/A (N/A)0 .. 20,0000%00:00 (00:00)Tero Lunkka, Valkeala Software, Blackthug, Ruskija game experienceTero Lunkka
117 Rob Riches Nov 16, 2021 $6.99N/A (N/A)0 .. 20,0000%00:00 (00:00)MegapopMegapop
118 Smintheus Nov 11, 2021 $14.99N/A (N/A)0 .. 20,0000%00:00 (00:00)Henrik ChukhranHenrik Chukhran
119 Cyber Puzzle HackRow Nov 9, 2021 $4.99N/A (N/A)0 .. 20,0000%00:00 (00:00)Timeless Games, Inc.Unity
120 Chesskoban - Chess Puzzles Nov 5, 2021 $0.64N/A (N/A)0 .. 20,0000%00:00 (00:00)Heimo Game StudioHeimo Game Studio
121 Where Cards Fall Nov 4, 2021 $19.99N/A (N/A)0 .. 20,0000%00:00 (00:00)The Game BandSnowman
122 Sokoramp Oct 29, 2021 $1.99N/A (N/A)0 .. 20,0000%00:00 (00:00)Rare Toad StudioRare Toad Studio
123 DUSK '82: ULTIMATE EDITION Oct 22, 2021 $6.99N/A (N/A)0 .. 20,0000%00:00 (00:00)David SzymanskiNew Blood Interactive
124 Slap The Rocks Oct 21, 2021 $1.99N/A (N/A)0 .. 20,0000%00:00 (00:00)Antonio FilipeAFIL Games
125 Dark Crypt Oct 15, 2021 $9.99N/A (N/A)0 .. 20,0000%00:00 (00:00)Daisy GamesDaisy Games
126 LONELY, LUSTFUL, ARROGANT, HATEFUL Oct 13, 2021 $1.99N/A (N/A)0 .. 20,0000%00:00 (00:00)NotoviaNotovia
127 Changes Oct 12, 2021 $19.99N/A (N/A)0 .. 20,0000%00:00 (00:00)Et Al GamesEt Al Games
128 TatuBall: A Minimalist LoFi Puzzle Oct 6, 2021 $1.99N/A (N/A)0 .. 20,0000%00:00 (00:00)TGMTGM
129 Boulders: Puzzle Oct 2, 2021 $0.99N/A (N/A)0 .. 20,0000%00:00 (00:00)Farewell GamesFarewell Games
130 Sokobear: Winter Oct 1, 2021 $1.69N/A (N/A)0 .. 20,0000%00:00 (00:00)Man Changing IdeasMan Changing Ideas
131 Ripple 涟 Oct 1, 2021 $2.99N/A (N/A)0 .. 20,0000%00:00 (00:00)Leta GamesLeta Games
132 Minimal Crypt Sep 30, 2021 $3.59N/A (N/A)0 .. 20,0000%00:00 (00:00)Crafty WeazelCrafty Weazel
133 Lowsy Sep 27, 2021 $0.99N/A (N/A)0 .. 20,0000%00:00 (00:00)XpuxXpux
134 AsMagnet Sep 25, 2021 $2.99N/A (N/A)0 .. 20,0000%00:00 (00:00)StudioYoshikoStudioYoshiko
135 Helper Cat Sep 17, 2021 $0.99N/A (N/A)0 .. 20,0000%00:00 (00:00)Giant HeadGiant Head
136 Blockdown Sep 17, 2021 FreeN/A (N/A)0 .. 20,0000%00:00 (00:00)Vasona StudiosVasona Studios
137 Return home Sep 15, 2021 $5.99N/A (N/A)0 .. 20,0000%00:00 (00:00)苒紫网络苒紫网络
138 Catch The Donut Sep 13, 2021 $0.99N/A (N/A)0 .. 20,0000%00:00 (00:00)ShortStackStudioShortStackStudio
139 Puzzle Light: Connect Sep 10, 2021 $0.99N/A (N/A)0 .. 20,0000%00:00 (00:00)Waidy AndradeCronostase
140 Sokocat - Dungeon Sep 2, 2021 $1.99N/A (N/A)0 .. 20,0000%00:00 (00:00)Moraes Game StudioMoraes Game Studio
141 天虹书店 Tian Hong Bookstore Sep 1, 2021 $5.99N/A (N/A)0 .. 20,0000%00:00 (00:00)周北Zhoubei周北Zhoubei
142 Don't Touch this Button! Aug 31, 2021 $3.99N/A (N/A)0 .. 20,0000%00:00 (00:00)9 Eyes Game Studio9 Eyes Game Studio, Stately Snail
143 Puzzledorf Aug 30, 2021 $4.99N/A (N/A)0 .. 20,0000%00:00 (00:00)Stuart's Pixel GamesStuart's Pixel Games
144 Ada And Cal Aug 28, 2021 $2.99N/A (N/A)0 .. 20,0000%00:00 (00:00)AntarsoftAntarsoft
145 Space Drone: Rescue Mission Aug 23, 2021 $1.99N/A (N/A)20,000 .. 50,0000%00:00 (00:00)Gray BossGray Boss
146 Side Decide Aug 18, 2021 $4.99N/A (N/A)0 .. 20,0000%00:00 (00:00)Blue Volcano StudioBlue Volcano Studio
147 Puzzle Light: Slide Aug 13, 2021 $0.99N/A (N/A)0 .. 20,0000%00:00 (00:00)Waidy AndradeCronostase
148 Romeow: to the cracked Mars Aug 10, 2021 $0.99N/A (N/A)0 .. 20,0000%00:00 (00:00)Remix GamesRemix Games
149 汉字大冒险 Aug 4, 2021 $3.49N/A (N/A)0 .. 20,0000%00:00 (00:00)InsVolcStudioInsVolcStudio
150 Metal Faith Aug 2, 2021 $9.99N/A (N/A)20,000 .. 50,0000%00:00 (00:00)Youth GameYouth Game
151 LoBlocks Jul 30, 2021 $0.99N/A (N/A)0 .. 20,0000%00:00 (00:00)Colossus Game StudioColossus Game Studio
152 Star Chaser in Sea World Jul 20, 2021 $0.99N/A (N/A)0 .. 20,0000%00:00 (00:00)TamTamGamesTamTamGames
153 SPACE STORESHIP -スペースストアシップ- Jul 20, 2021 $6.99N/A (N/A)0 .. 20,0000%00:00 (00:00)OtakesanOtakesan
154 青之镇物语 Jul 10, 2021 $1.99N/A (N/A)0 .. 20,0000%00:00 (00:00)Clock in dreamClock in dream
155 Upaon: A Snake's Journey Jun 25, 2021 $2.99N/A (N/A)0 .. 20,0000%00:00 (00:00)Wired Dreams StudioWired Dreams Studio
156 Loopindex Jun 25, 2021 $4.99N/A (N/A)0 .. 20,0000%00:00 (00:00)SomepxRatalaika Games S.L.
157 窓の中の先にあるもの Jun 21, 2021 $1.99N/A (N/A)0 .. 20,0000%00:00 (00:00)とぶとぶ
158 Chiasm Jun 18, 2021 $1.99N/A (N/A)0 .. 20,0000%00:00 (00:00)Tim Fowers, Jeff KrauseFowers Games
159 Fluffy Cubed Jun 18, 2021 $1.99N/A (N/A)0 .. 20,0000%00:00 (00:00)Naoka GamesNaoka Games
160 Stars SLIDE Jun 18, 2021 $0.99N/A (N/A)0 .. 20,0000%00:00 (00:00)Sprovieri GamesSprovieri Games
161 War Mines: WW1 Jun 17, 2021 $1.99N/A (N/A)0 .. 20,0000%00:00 (00:00)The 6-month initiativeThe 6-month initiative
162 SokoMatch: Lizard Saga Jun 17, 2021 $1.99N/A (N/A)0 .. 20,0000%00:00 (00:00)ShortStackStudioShortStackStudio
163 GeometryBricks Jun 8, 2021 $2.99N/A (N/A)0 .. 20,0000%00:00 (00:00)Marcin GardyjanMarcin Gardyjan
164 Slikoban Jun 5, 2021 $1.99N/A (N/A)50,000 .. 100,0000%00:00 (00:00)Heimo Game StudioHeimo Game Studio
165 Jessie 'Boom' James - a jigsaw chess tale Jun 4, 2021 $1.99N/A (N/A)0 .. 20,0000%00:00 (00:00)Minimol GamesMinimol Games
166 qubo Jun 1, 2021 $7.99N/A (N/A)0 .. 20,0000%00:00 (00:00)CronyxCronyx
167 Loot Slider Jun 1, 2021 $7.99N/A (N/A)0 .. 20,0000%00:00 (00:00)Retrofied GamesRetrofied Games
168 trappuzzler May 31, 2021 $1.99N/A (N/A)0 .. 20,0000%00:00 (00:00)Kevin De KeyserKevin De Keyser
169 Laruaville 11 Match 3 Puzzle May 29, 2021 $6.99N/A (N/A)0 .. 20,0000%00:00 (00:00)LGT SIALGT SIA
170 Dumpy and Bumpy May 27, 2021 $4.99N/A (N/A)0 .. 20,0000%00:00 (00:00)ProgramancerScreenwave Media
171 Shinobi's Way - a jigsaw chess tale May 27, 2021 $1.99N/A (N/A)0 .. 20,0000%00:00 (00:00)Minimol GamesMinimol Games
172 Space Porter May 18, 2021 $9.99N/A (N/A)0 .. 20,0000%00:00 (00:00)Stas Paty9mkinPiece Of Voxel
173 Sokocat - Islands May 14, 2021 $1.99N/A (N/A)0 .. 20,0000%00:00 (00:00)Moraes Game StudioMoraes Game Studio
174 A Snake In A Maze May 5, 2021 $3.99N/A (N/A)0 .. 20,0000%00:00 (00:00)Dovii GamesDovii Games
175 Unlock the Block May 3, 2021 $0.99N/A (N/A)0 .. 20,0000%00:00 (00:00)Hilarious GamesHilarious Games
176 Little Fighters on Stream May 3, 2021 $2.99N/A (N/A)0 .. 20,0000%00:00 (00:00)TEAM Black Hat RobotTEAM Black Hat Robot
177 Water Drift May 2, 2021 $9.99N/A (N/A)0 .. 20,0000%00:00 (00:00)HedeHede
178 Robot.Start - Puzzle Game Apr 26, 2021 $0.99N/A (N/A)0 .. 20,0000%00:00 (00:00)Misc.261Misc.261
179 Dark Sheep Apr 23, 2021 $4.99N/A (N/A)0 .. 20,0000%00:00 (00:00)Daisy GamesDaisy Games
180 Control:Override Apr 20, 2021 $2.99N/A (N/A)0 .. 20,0000%00:00 (00:00)B-Deshi InteractiveBrain Station 23 Ltd.
181 Inner Tao Apr 12, 2021 $2.09N/A (N/A)0 .. 20,0000%00:00 (00:00)Lucas Le Slo, Sergi SabaterLucas Le Slo
182 Lonely Birds Apr 12, 2021 $13.99N/A (N/A)0 .. 20,0000%00:00 (00:00)Doodad GamesDoodad Games
183 Puzzle & Chess Apr 9, 2021 $0.99N/A (N/A)0 .. 20,0000%00:00 (00:00)Beni GamesBeni Games
184 Ladder Box Apr 6, 2021 $2.99N/A (N/A)0 .. 20,0000%00:00 (00:00)fengjiongmaxfengjoingmax
185 Bunny's Ban Apr 2, 2021 $1.99N/A (N/A)0 .. 20,0000%00:00 (00:00)ShortStackStudioShortStackStudio
186 Lighton: Duo Mar 31, 2021 $1.99N/A (N/A)0 .. 20,0000%00:00 (00:00)Waidy AndradeCronostase
187 Dungeon Slime 2: Puzzle in the Dark Forest Mar 29, 2021 $1.99N/A (N/A)0 .. 20,0000%00:00 (00:00)Daniel Siqueira AbdelnurPequi studios
188 Sliko Mar 27, 2021 $0.54N/A (N/A)20,000 .. 50,0000%00:00 (00:00)BissonhoHeimo Game Studio
189 Unblock Me Car Mar 24, 2021 $0.99N/A (N/A)0 .. 20,0000%00:00 (00:00)ShaganovDevShaganovDev
190 Princess Castle Quest Mar 24, 2021 $9.99N/A (N/A)0 .. 20,0000%00:00 (00:00)Piggybank StudiosPiggybank Studios
191 Red Ronin Mar 17, 2021 $7.99N/A (N/A)0 .. 20,0000%00:00 (00:00)Wired Dreams StudioWired Dreams Studio
192 Midnight is Lost Mar 17, 2021 $1.99N/A (N/A)0 .. 20,0000%00:00 (00:00)Robotizar GamesRobotizar Games
193 Bunny's Flowers Mar 15, 2021 $7.99N/A (N/A)0 .. 20,0000%00:00 (00:00)zuzazuza
194 Altered Mar 12, 2021 $11.99N/A (N/A)0 .. 20,0000%00:00 (00:00)GlitchheartGlitchheart
195 U27RA R3Z0NANC3 Mar 12, 2021 $4.99N/A (N/A)0 .. 20,0000%00:00 (00:00)DumividDumivid
196 The Help Desk Mar 17, 2021 $0.99N/A (N/A)0 .. 20,0000%00:00 (00:00)Leonardo Batista, Aline SekoLeonardo Batista
197 Teodoro Mar 7, 2021 $1.99N/A (N/A)0 .. 20,0000%00:00 (00:00)CosMonkeysCosMonkeys
198 Loch Mess Mar 4, 2021 $1.99N/A (N/A)0 .. 20,0000%00:00 (00:00)AiluruxAilurux
199 Romeow: in the cracked world Mar 3, 2021 $0.99N/A (N/A)0 .. 20,0000%00:00 (00:00)Remix GamesRemix Games
200 Tiny Traffic Feb 25, 2021 $2.99N/A (N/A)0 .. 20,0000%00:00 (00:00)Virtual Turtle GamesVirtual Turtle Games
201 Push The Box 3D Feb 24, 2021 $0.99N/A (N/A)0 .. 20,0000%00:00 (00:00)NanningsGamesNanningsGames
202 Of Mice and Moggies Feb 23, 2021 $9.99N/A (N/A)0 .. 20,0000%00:00 (00:00)BippinbitsBippinbits
203 Chess Brain: Dark Troops Feb 4, 2021 $0.69N/A (N/A)20,000 .. 50,0000%00:00 (00:00)Caio FlavioCaio Flavio
204 A hermit crab is finding a house Feb 4, 2021 $0.99N/A (N/A)0 .. 20,0000%00:00 (00:00)GAGAGAGA
205 Roboggled Jan 21, 2021 $0.99N/A (N/A)0 .. 20,0000%00:00 (00:00)Nathan WardenNathan Warden
206 4096 Jan 20, 2021 $9.99N/A (N/A)20,000 .. 50,0000%00:00 (00:00)JinCycleJinCycle
207 Super Dango Jan 19, 2021 $2.99N/A (N/A)0 .. 20,0000%00:00 (00:00)Super RiceSuper Rice
208 Dungeon and Puzzles Jan 14, 2021 $7.99N/A (N/A)0 .. 20,0000%00:00 (00:00)NekolystDigital Crafter, Nekolyst, Light of Creators
209 Yin Yang Jan 10, 2021 $0.99N/A (N/A)0 .. 20,0000%00:00 (00:00)Thedox GamesThedox Games
210 Color Cube Dec 26, 2020 $0.99N/A (N/A)0 .. 20,0000%00:00 (00:00)NanningsGamesNanningsGames
211 Seek Girl Ⅶ Dec 11, 2020 $1.99N/A (N/A)50,000 .. 100,0000%00:00 (00:00)DSGameDSGame
212 Syzygy Nov 20, 2020 FreeN/A (N/A)0 .. 20,0000%00:00 (00:00)Riccardo Caprari, Gas1312Riccardo Caprari
213 SMIB: Mission Cure Nov 19, 2020 $1.99N/A (N/A)50,000 .. 100,0000%00:00 (00:00)Virtual Arts StudioVirtual Arts Studio
214 Brain Break Nov 18, 2020 $3.99N/A (N/A)0 .. 20,0000%00:00 (00:00)KuKusFs ProductionKuKusFs Production
215 Bunny's Trail Nov 17, 2020 $1.99N/A (N/A)0 .. 20,0000%00:00 (00:00)ShortStackStudioShortStackStudio
216 I'm on Observation Duty 3 Nov 13, 2020 $2.99N/A (N/A)200,000 .. 500,0000%00:00 (00:00)NotoviaNotovia
217 Spherical alliance Oct 27, 2020 $4.49N/A (N/A)0 .. 20,0000%00:00 (00:00)Stefan PreussStefan Preuss
218 Mages and Treasures Oct 27, 2020 $4.99N/A (N/A)0 .. 20,0000%00:00 (00:00)lightUPlightUP
219 Forklift Load Oct 22, 2020 $2.99N/A (N/A)20,000 .. 50,0000%00:00 (00:00)KIMIDORI SOFTKIMIDORI SOFT
220 Chipmunk's Adventures Oct 21, 2020 $1.99N/A (N/A)0 .. 20,0000%00:00 (00:00)IndieWolf GamesIndieWolf Games
221 Kine Oct 19, 2020 $14.99N/A (N/A)0 .. 20,0000%00:00 (00:00)Chump SquadChump Squad
222 Wark & Wimble Oct 19, 2020 $5.99N/A (N/A)0 .. 20,0000%00:00 (00:00)Porble GamesPorble Games
223 Moving Letters Oct 16, 2020 $1.99N/A (N/A)0 .. 20,0000%00:00 (00:00)AiremAirem
224 SOK PRO Oct 13, 2020 $1.99N/A (N/A)0 .. 20,0000%00:00 (00:00)Siberian MouseSiberian Mouse
225 Move 'n' Bloom Oct 12, 2020 $3.99N/A (N/A)0 .. 20,0000%00:00 (00:00)Waldemar UmanizWaldemar Umaniz
226 余烬 Oct 1, 2020 $3.99N/A (N/A)0 .. 20,0000%00:00 (00:00)宁夏华夏西部影视城有限公司宁夏华夏西部影视城有限公司
227 Couch Installation Service Oct 1, 2020 $3.99N/A (N/A)0 .. 20,0000%00:00 (00:00)Ilya TishchenkoIlya Tishchenko
228 Sokoban (Boxman) Classic Sep 15, 2020 $6.99N/A (N/A)0 .. 20,0000%00:00 (00:00)JChip GameJChip Games
229 Mess Adventures Sep 30, 2020 $2.99N/A (N/A)0 .. 20,0000%00:00 (00:00)Marvelous GamesMarvelous Games
230 Seek Girl Ⅵ Sep 30, 2020 $1.99N/A (N/A)50,000 .. 100,0000%00:00 (00:00)DSGameDSGame
231 Dungeons & Bombs Sep 22, 2020 $0.54N/A (N/A)0 .. 20,0000%00:00 (00:00)PigeonDevPigeonDev
232 Mina & Michi Sep 22, 2020 $4.99N/A (N/A)0 .. 20,0000%00:00 (00:00)lightUPlightUP
233 Blackshift Sep 22, 2020 $9.99N/A (N/A)0 .. 20,0000%00:00 (00:00)Robin AllenRobin Allen
234 Worm Jazz Sep 21, 2020 $6.99N/A (N/A)0 .. 20,0000%00:00 (00:00)Inconspicuous CreationsInconspicuous Creations
235 Sokodice Sep 17, 2020 $5.99N/A (N/A)0 .. 20,0000%00:00 (00:00)The Socially Awkward StudioThe Socially Awkward Studio
236 A Monster's Expedition Sep 10, 2020 $19.99N/A (N/A)50,000 .. 100,0000%00:00 (00:00)Draknek & FriendsDraknek
237 The Golem Sep 10, 2020 $9.99N/A (N/A)0 .. 20,0000%00:00 (00:00)Dom CamusFastRam Design
238 ICONIC Sep 9, 2020 $2.99N/A (N/A)0 .. 20,0000%00:00 (00:00)Cody RauhOptimistic Games
239 Chess Brain Sep 8, 2020 $0.99N/A (N/A)20,000 .. 50,0000%00:00 (00:00)Caio FlavioCaio Flavio
240 Lost Gems Sep 7, 2020 $6.99N/A (N/A)0 .. 20,0000%00:00 (00:00)pyx-gamespyx-games
241 Mushroom Savior Sep 4, 2020 $3.99N/A (N/A)0 .. 20,0000%00:00 (00:00)Flying Islands TeamFlying Islands Team
242 86 Sep 3, 2020 $4.99N/A (N/A)0 .. 20,0000%00:00 (00:00)Loony CodeLoony Code
243 Seek Girl V Aug 28, 2020 $1.99N/A (N/A)20,000 .. 50,0000%00:00 (00:00)DSGameDSGame
244 Ninja Castle Escape Aug 28, 2020 $4.99N/A (N/A)0 .. 20,0000%00:00 (00:00)Zoo CorporationZoo Corporation
245 Whiskers & Tail Aug 25, 2020 $4.99N/A (N/A)0 .. 20,0000%00:00 (00:00)Dr. Cyril SplutterworthDr. Cyril Splutterworth
246 魔法考核冒险 Aug 25, 2020 $1.99N/A (N/A)20,000 .. 50,0000%00:00 (00:00)阿柒不爱日期阿柒不爱日期
247 Dorky Fork Aug 24, 2020 $2.99N/A (N/A)0 .. 20,0000%00:00 (00:00)Aaron MoonAaron Moon
248 Unit 404 Aug 20, 2020 $7.99N/A (N/A)0 .. 20,0000%00:00 (00:00)[OneManBand][OneManBand]
249 SNIKS Aug 12, 2020 $2.99N/A (N/A)0 .. 20,0000%00:00 (00:00)Shelly AlonShelly Alon
250 Stonebot Adventures Aug 11, 2020 $2.99N/A (N/A)0 .. 20,0000%00:00 (00:00)Rayden QuiambaoBahay Kubo Inc.
251 Proto Cuckoo 64 Aug 8, 2020 $4.99N/A (N/A)0 .. 20,0000%00:00 (00:00)TheBigYellowSkipTheBigYellowSkip
252 Milo's Quest Jul 29, 2020 $4.99N/A (N/A)0 .. 20,0000%00:00 (00:00)lightUPlightUP
253 An Interesting Journey of Monsieur PAF Jul 29, 2020 $14.99N/A (N/A)0 .. 20,0000%00:00 (00:00)ErnestinePlug In Digital, Ernestine
254 THE IMPOSSIBLE Jul 24, 2020 $4.99N/A (N/A)100,000 .. 200,0000%00:00 (00:00)IMPOSSIBLE INC, AiremAirem
255 Rollfall: Quest of Acceleration Jul 16, 2020 $0.99N/A (N/A)0 .. 20,0000%00:00 (00:00)Ethan InesEthan ines
256 Déjà Vu Jul 15, 2020 $2.99N/A (N/A)0 .. 20,0000%00:00 (00:00)Eric Freeman, Danielle YoseloffEric Freeman, Danielle Yoseloff
257 Snow Trail Jul 10, 2020 $0.99N/A (N/A)0 .. 20,0000%00:00 (00:00)Benjamin KerrBenjamin Kerr
258 Salad Fields Jul 10, 2020 $14.99N/A (N/A)0 .. 20,0000%00:00 (00:00)resnijarsresnijars
259 Box Factory Jul 9, 2020 $0.99N/A (N/A)0 .. 20,0000%00:00 (00:00)NanningsGamesNanningsGames
260 Astronomia Jul 7, 2020 $4.99N/A (N/A)0 .. 20,0000%00:00 (00:00)Ari VelazquezAri Velazquez
261 Cursed Mummies Jul 3, 2020 $2.99N/A (N/A)0 .. 20,0000%00:00 (00:00)Alex Game Dev.Garage Games
262 Underground Keeper 2 Jun 29, 2020 $9.99N/A (N/A)0 .. 20,0000%00:00 (00:00)LukasHRender System
263 Synonym Jun 25, 2020 $4.99N/A (N/A)0 .. 20,0000%00:00 (00:00)Jack, Chia Chang KooJack, Chia Chang Koo
264 BRDG Jun 19, 2020 $0.99N/A (N/A)0 .. 20,0000%00:00 (00:00)Robert AlvarezRobert Alvarez
265 Lighton Jun 18, 2020 $1.99N/A (N/A)0 .. 20,0000%00:00 (00:00)Waidy AndradeCronostase
266 Betelgeuse May 31, 2020 $0.99N/A (N/A)0 .. 20,0000%00:00 (00:00)Brainstorm SoftwareBrainstorm Software
267 SokoBunny May 22, 2020 $5.99N/A (N/A)0 .. 20,0000%00:00 (00:00)DillyFrameDillyFrame
268 Nullum May 8, 2020 $0.99N/A (N/A)0 .. 20,0000%00:00 (00:00)Misc.261Misc.261
269 Wire May 4, 2020 $1.99N/A (N/A)0 .. 20,0000%00:00 (00:00)Sebastián Rodríguez LeopoldSebastián Rodríguez Leopold
270 Maze Burrow Mar 31, 2020 $9.99N/A (N/A)0 .. 20,0000%00:00 (00:00)Thomas "Kimimaru" DeebThomas "Kimimaru" Deeb
271 Pyro the Exterminator Feb 21, 2020 $4.99N/A (N/A)0 .. 20,0000%00:00 (00:00)Chained DevChained Dev
272 Unlock The King 3 Mar 17, 2020 $0.99N/A (N/A)0 .. 20,0000%00:00 (00:00)Minimol GamesMinimol Games
273 Puddle Knights Mar 3, 2020 $9.99N/A (N/A)0 .. 20,0000%00:00 (00:00)LockpickleLockpickle
274 Snaliens Feb 27, 2020 $7.99N/A (N/A)0 .. 20,0000%00:00 (00:00)JFerreiraJFerreira
275 Unlock The King 2 Jan 31, 2020 $0.99N/A (N/A)20,000 .. 50,0000%00:00 (00:00)Minimol GamesMinimol Games
276 MyBot Jan 25, 2020 $6.99N/A (N/A)0 .. 20,0000%00:00 (00:00)Emile BadenhorstMyvar Holdings
277 Box Kid Adventures Jan 28, 2020 $9.99N/A (N/A)0 .. 20,0000%00:00 (00:00)T-Rex InteractiveT-Rex interactive, Kurki.games
278 Get the Banana Jan 27, 2020 $2.99N/A (N/A)0 .. 20,0000%00:00 (00:00)Centipede StudiosCentipede Studios
279 Give Up The Dupe Dec 17, 2019 $1.99N/A (N/A)0 .. 20,0000%00:00 (00:00)SilbinaryWolfSilbinaryWolf
280 The Big SokoBang Dec 17, 2019 $0.99N/A (N/A)0 .. 20,0000%00:00 (00:00)Peter Nikolaev KoniarovPeter Nikolaev Koniarov
281 Knight Swap 2 Dec 13, 2019 $0.99N/A (N/A)0 .. 20,0000%00:00 (00:00)Minimol GamesMinimol Games
282 DOUBLE INVASION!! Dec 11, 2019 $7.99N/A (N/A)0 .. 20,0000%00:00 (00:00)Goose Ladder GamesGoose Ladder Games
283 Markov Alg Nov 26, 2019 $2.99N/A (N/A)0 .. 20,0000%00:00 (00:00)FewjixFewjix
284 Unlock The King Nov 20, 2019 $0.99N/A (N/A)50,000 .. 100,0000%00:00 (00:00)Minimol GamesMinimol Games
285 Explosive Jake Nov 1, 2019 $0.54N/A (N/A)0 .. 20,0000%00:00 (00:00)PigeonDevPigeonDev
286 Imbroglio Nov 4, 2019 $5.99N/A (N/A)0 .. 20,0000%00:00 (00:00)Rostislav PogosianRostislav Pogosian
287 Knight Swap Oct 22, 2019 $0.99N/A (N/A)0 .. 20,0000%00:00 (00:00)Minimol GamesMinimol Games
288 REFLASER Aug 30, 2019 $1.99N/A (N/A)0 .. 20,0000%00:00 (00:00)Dmitry DovgalDmitry Dovgal
289 Unknown Castle Aug 19, 2019 $4.99N/A (N/A)0 .. 20,0000%00:00 (00:00)Pikku-aPikku-a
290 Hyperplex 3D Aug 16, 2019 $4.99N/A (N/A)0 .. 20,0000%00:00 (00:00)LowscopeLowscope
291 Button Button Up! Aug 9, 2019 $11.99N/A (N/A)0 .. 20,0000%00:00 (00:00)Centrosphere GamesCentrosphere Games
292 Mahjong: Magic Chips Jun 25, 2019 $2.99N/A (N/A)0 .. 20,0000%00:00 (00:00)IO GamesIO Games
293 Aircraft War Jun 14, 2019 $0.99N/A (N/A)0 .. 20,0000%00:00 (00:00)ismail ozelismail ozel
294 Flux Caves Jun 7, 2019 $1.99N/A (N/A)0 .. 20,0000%00:00 (00:00)FubenalvoFubenalvo
295 Night Lights Jun 7, 2019 $4.99N/A (N/A)20,000 .. 50,0000%00:00 (00:00)Meridian4, Grave Danger GamesMeridian4
296 Smart Gecko May 15, 2019 $2.99N/A (N/A)0 .. 20,0000%00:00 (00:00)Nayvos GamesNayvos Games
297 Push Pull Mar 8, 2019 $2.99N/A (N/A)0 .. 20,0000%00:00 (00:00)abso1utionabso1ution
Overview

Sokoban

Games with this tag: 297
Average userscore: N/A%
Average metascore: 78.56%
Average playtime: 00:50
Total copies owned: 5,634,000
Average price: $4.93
Help

Owners: Estimated number of people owning this game. The number might be way too small for new releases and sometimes way too big for games that had free weekend event recently. Read more on About page.

Playtime: Average hours played in total per person that have actually launched this game since March 2009. This time is calculated for the whole lifetime, not for the particular year.

Average score: Average users and metacritic score for all games with this score assigned.

Average playtime: Average lifetime playtime for all games where this data is available.

Games in this genre: Self-explaining - number of games with this tag. Only inculdes games with sales data available.

Total copies owned: Refers to total copies of games with this tag acquired by users for the lifetime. Includes copies sold, downloaded for free and given out.

This number might be too small for recently released games or too big for games that had a free weekend in the last couple of months.

Graphs

Login required.

Please register or log in to see this information.

Login required.

Please register or log in to see this information.